Terminal Aerodrome Forecast
Issued by NWS Louisville, KY

Home | Current Version | Previous Version | Text Only | Print | Product List | Glossary On
Versions: 1 2 3 4 5 6 7 8 9 10 11 12 13 14
000
FTUS43 KLMK 271100
TAFBWG
TAF
KBWG 271121Z 2712/2812 20006KT P6SM SCT009 BKN150
      TEMPO 2712/2713 BKN009
     FM272000 22010G17KT P6SM VCTS BKN040CB
     FM280100 23004KT P6SM VCSH BKN100
     FM280900 00000KT 4SM BR FEW250=

USA.gov is the U.S. government's official web portal to all federal, state and local government web resources and services.